createdAt,value
2023-01-27T00:03:51.569Z,8.80
2023-01-27T00:08:53.693Z,8.76
2023-01-27T00:13:56.174Z,8.27
2023-01-27T00:18:58.508Z,8.44
2023-01-27T00:24:19.359Z,8.17
2023-01-27T00:29:21.669Z,7.15
2023-01-27T00:34:23.719Z,6.89
2023-01-27T00:39:25.791Z,7.36
2023-01-27T00:44:27.909Z,7.58
2023-01-27T00:49:30.108Z,7.68
2023-01-27T00:54:32.361Z,7.77
2023-01-27T00:59:34.511Z,7.65
2023-01-27T01:04:36.686Z,7.62
2023-01-27T01:09:38.744Z,7.55
2023-01-27T01:14:40.938Z,7.80
2023-01-27T01:19:43.093Z,7.75
2023-01-27T01:24:45.206Z,7.97
2023-01-27T01:29:47.503Z,7.76
2023-01-27T01:34:49.560Z,7.76
2023-01-27T01:39:51.659Z,8.12
2023-01-27T01:45:31.844Z,8.34
2023-01-27T01:50:35.612Z,7.92
2023-01-27T01:55:38.933Z,7.36
2023-01-27T02:00:41.594Z,7.65
2023-01-27T02:05:45.789Z,7.85
2023-01-27T02:10:48.547Z,7.90
2023-01-27T02:15:54.140Z,8.19
2023-01-27T02:20:57.169Z,8.25
2023-01-27T02:26:36.685Z,8.23
2023-01-27T02:31:39.647Z,8.21
2023-01-27T02:36:48.094Z,8.09
2023-01-27T02:41:57.288Z,8.44
2023-01-27T02:46:59.534Z,8.54
2023-01-27T02:52:01.945Z,8.58
2023-01-27T02:57:04.093Z,8.56
2023-01-27T03:02:07.452Z,8.32
2023-01-27T03:07:09.640Z,7.84
2023-01-27T03:12:20.905Z,7.72
2023-01-27T03:17:41.582Z,7.73
2023-01-27T03:22:43.629Z,7.82
2023-01-27T03:27:46.073Z,7.54
2023-01-27T03:32:54.749Z,7.79
2023-01-27T03:38:15.524Z,7.76
2023-01-27T03:43:36.425Z,8.01
2023-01-27T03:48:38.855Z,7.96
2023-01-27T03:53:40.976Z,7.94
2023-01-27T03:58:44.171Z,8.01
2023-01-27T04:04:05.914Z,8.24
2023-01-27T04:09:09.778Z,8.31
2023-01-27T04:14:13.755Z,8.47
2023-01-27T04:19:15.917Z,8.44
2023-01-27T04:24:22.969Z,8.43
2023-01-27T04:29:28.324Z,8.37
2023-01-27T04:34:30.773Z,8.39
2023-01-27T04:39:33.556Z,8.11
2023-01-27T04:44:35.719Z,8.35
2023-01-27T04:49:37.810Z,8.45
2023-01-27T04:54:40.029Z,8.44
2023-01-27T04:59:42.155Z,8.40
2023-01-27T05:04:44.373Z,8.36
2023-01-27T05:09:46.438Z,8.30
2023-01-27T05:14:48.567Z,8.28
2023-01-27T05:19:50.901Z,8.29
2023-01-27T05:24:52.975Z,8.58
2023-01-27T05:29:55.253Z,8.57
2023-01-27T05:34:57.369Z,8.69
2023-01-27T05:40:02.738Z,8.44
2023-01-27T05:45:05.245Z,8.63
2023-01-27T05:50:08.058Z,8.56
2023-01-27T05:55:10.422Z,8.61
2023-01-27T06:00:12.988Z,8.52
2023-01-27T06:05:15.667Z,8.42
2023-01-27T06:10:18.320Z,8.40
2023-01-27T06:15:20.437Z,8.13
2023-01-27T06:20:22.583Z,7.67
2023-01-27T06:25:24.721Z,7.99
2023-01-27T06:30:27.076Z,8.38
2023-01-27T06:35:29.836Z,8.45
2023-01-27T06:40:33.543Z,8.61
2023-01-27T06:45:35.717Z,8.67
2023-01-27T06:50:38.068Z,8.64
2023-01-27T06:55:42.084Z,7.96
2023-01-27T07:00:44.858Z,7.78
2023-01-27T07:05:46.984Z,7.11
2023-01-27T07:10:49.166Z,6.84
2023-01-27T07:16:00.726Z,6.61
2023-01-27T07:21:06.014Z,6.69
2023-01-27T07:26:23.326Z,7.43
2023-01-27T07:31:27.239Z,8.16
2023-01-27T07:36:29.395Z,8.41
2023-01-27T07:41:31.703Z,8.78
2023-01-27T07:46:33.865Z,8.65
2023-01-27T07:51:36.067Z,7.76
2023-01-27T07:56:38.665Z,7.75
2023-01-27T08:01:42.149Z,7.70
2023-01-27T08:06:44.577Z,7.90
2023-01-27T08:11:46.991Z,7.82
2023-01-27T08:16:49.245Z,7.10
2023-01-27T08:21:51.604Z,7.82
2023-01-27T08:26:53.852Z,7.53
2023-01-27T08:31:56.054Z,8.20
2023-01-27T08:36:58.209Z,8.39
2023-01-27T08:42:01.082Z,8.50
2023-01-27T08:47:03.301Z,8.74
2023-01-27T08:52:05.554Z,8.97
2023-01-27T08:57:07.706Z,9.03
2023-01-27T09:02:13.113Z,9.05
2023-01-27T09:07:15.467Z,9.29
2023-01-27T09:12:17.847Z,9.53
2023-01-27T09:17:20.224Z,9.43
2023-01-27T09:22:22.326Z,9.38
2023-01-27T09:27:38.070Z,9.34
2023-01-27T09:32:41.904Z,9.53
2023-01-27T09:37:50.978Z,9.70
2023-01-27T09:43:21.328Z,9.48
2023-01-27T09:48:33.613Z,9.46
2023-01-27T09:53:45.231Z,9.83
2023-01-27T09:59:13.402Z,9.82
2023-01-27T10:04:53.887Z,9.52
2023-01-27T10:10:20.985Z,9.65
2023-01-27T10:15:46.772Z,10.23
2023-01-27T10:21:04.306Z,10.59
2023-01-27T10:26:36.226Z,10.80
2023-01-27T10:31:48.665Z,10.90
2023-01-27T10:37:04.854Z,10.52
2023-01-27T10:42:21.789Z,10.67
2023-01-27T10:47:45.215Z,10.85
2023-01-27T10:53:10.715Z,10.99
2023-01-27T10:58:29.233Z,10.28
2023-01-27T11:03:34.009Z,10.86
2023-01-27T11:08:39.358Z,11.06
2023-01-27T11:13:42.246Z,10.94
2023-01-27T11:18:47.059Z,10.60
2023-01-27T11:23:56.198Z,10.03
2023-01-27T11:29:01.816Z,10.38
2023-01-27T11:34:22.620Z,11.02
2023-01-27T11:39:26.388Z,11.00
2023-01-27T11:44:33.118Z,10.12
2023-01-27T11:49:41.473Z,10.70
2023-01-27T11:54:50.531Z,10.86
2023-01-27T12:00:13.444Z,10.66
2023-01-27T12:05:25.394Z,10.66
2023-01-27T12:10:44.294Z,11.04
2023-01-27T12:16:01.068Z,11.45
2023-01-27T12:21:07.049Z,11.29
2023-01-27T12:26:12.273Z,11.21
2023-01-27T12:31:21.487Z,11.56
2023-01-27T12:36:24.957Z,11.84
2023-01-27T12:41:29.310Z,11.89
2023-01-27T12:46:32.802Z,12.01
2023-01-27T12:51:42.247Z,12.24
2023-01-27T12:56:44.682Z,11.77
2023-01-27T13:02:00.518Z,11.66
2023-01-27T13:07:02.699Z,11.84
2023-01-27T13:12:19.730Z,11.81
2023-01-27T13:17:45.355Z,11.83
2023-01-27T13:22:51.779Z,11.77
2023-01-27T13:27:59.266Z,11.78
2023-01-27T13:33:25.273Z,11.75
2023-01-27T13:38:49.585Z,11.80
2023-01-27T13:44:21.616Z,11.74
2023-01-27T13:49:47.213Z,11.69
2023-01-27T13:54:49.403Z,11.72
2023-01-27T14:00:16.660Z,11.57
2023-01-27T14:05:40.362Z,11.72
2023-01-27T14:11:04.662Z,11.64
2023-01-27T14:16:38.686Z,11.84
2023-01-27T14:21:51.925Z,11.79
2023-01-27T14:27:18.256Z,11.44
2023-01-27T14:32:23.227Z,11.66
2023-01-27T14:37:36.095Z,11.56
2023-01-27T14:43:08.098Z,11.65
2023-01-27T14:48:30.380Z,11.37
2023-01-27T14:54:14.507Z,11.35
2023-01-27T14:59:37.892Z,11.36
2023-01-27T15:04:54.774Z,11.26
2023-01-27T15:10:19.749Z,11.43
2023-01-27T15:15:38.535Z,11.61
2023-01-27T15:21:10.706Z,11.56
2023-01-27T15:26:15.268Z,11.36
2023-01-27T15:31:18.017Z,11.52
2023-01-27T15:36:30.288Z,11.41
2023-01-27T15:41:33.007Z,11.30
2023-01-27T15:46:37.092Z,11.44
2023-01-27T15:51:39.709Z,11.35
2023-01-27T15:57:05.729Z,11.11
2023-01-27T16:02:17.901Z,11.15
2023-01-27T16:07:50.395Z,11.09
2023-01-27T16:13:14.900Z,11.16
2023-01-27T16:18:16.928Z,11.24
2023-01-27T16:23:40.159Z,11.07
2023-01-27T16:28:47.302Z,10.93
2023-01-27T16:33:55.568Z,10.83
2023-01-27T16:39:21.535Z,10.93
2023-01-27T16:44:31.320Z,11.14
2023-01-27T16:49:40.748Z,11.21
2023-01-27T16:54:44.957Z,11.22
2023-01-27T16:59:47.688Z,11.17
2023-01-27T17:04:52.812Z,10.87
2023-01-27T17:10:01.422Z,11.06
2023-01-27T17:15:19.954Z,11.03
2023-01-27T17:20:30.291Z,11.03
2023-01-27T17:25:37.082Z,11.09
2023-01-27T17:30:42.485Z,10.95
2023-01-27T17:35:51.766Z,11.18
2023-01-27T17:40:55.535Z,11.25
2023-01-27T17:46:06.742Z,11.19
2023-01-27T17:51:13.377Z,10.81
2023-01-27T17:56:27.481Z,10.89
2023-01-27T18:01:30.782Z,10.49
2023-01-27T18:06:33.876Z,10.83
2023-01-27T18:11:37.827Z,10.38
2023-01-27T18:16:40.178Z,10.49
2023-01-27T18:21:42.451Z,10.73
2023-01-27T18:26:44.774Z,10.10
2023-01-27T18:31:56.345Z,10.20
2023-01-27T18:36:58.665Z,10.83
2023-01-27T18:42:02.269Z,10.77
2023-01-27T18:47:19.609Z,10.77
2023-01-27T18:52:22.130Z,10.73
2023-01-27T18:57:24.409Z,10.11
2023-01-27T19:02:26.861Z,9.95
2023-01-27T19:07:29.598Z,10.36
2023-01-27T19:12:32.905Z,10.01
2023-01-27T19:17:35.247Z,10.01
2023-01-27T19:22:37.687Z,9.90
2023-01-27T19:27:43.122Z,10.13
2023-01-27T19:32:45.440Z,10.20
2023-01-27T19:37:49.006Z,9.81
2023-01-27T19:42:51.392Z,9.32
2023-01-27T19:47:53.906Z,9.59
2023-01-27T19:52:56.844Z,9.19
2023-01-27T19:57:59.231Z,9.66
2023-01-27T20:03:02.382Z,9.26
2023-01-27T20:08:04.689Z,9.25
2023-01-27T20:13:07.763Z,9.78
2023-01-27T20:18:13.970Z,9.05
2023-01-27T20:23:16.352Z,9.34
2023-01-27T20:28:18.649Z,9.51
2023-01-27T20:33:21.033Z,9.13
2023-01-27T20:38:23.191Z,9.26
2023-01-27T20:43:34.707Z,9.40
2023-01-27T20:48:37.490Z,9.34
2023-01-27T20:53:46.154Z,9.40
2023-01-27T20:58:49.347Z,9.49
2023-01-27T21:03:52.218Z,9.46
2023-01-27T21:08:54.287Z,9.43
2023-01-27T21:13:56.504Z,9.08
2023-01-27T21:18:58.613Z,9.27
2023-01-27T21:24:01.029Z,8.96
2023-01-27T21:29:06.848Z,9.09
2023-01-27T21:34:10.828Z,9.25
2023-01-27T21:39:12.986Z,9.33
2023-01-27T21:44:48.688Z,9.18
2023-01-27T21:50:03.367Z,8.76
2023-01-27T21:55:12.176Z,9.09
2023-01-27T22:00:16.916Z,9.11
2023-01-27T22:05:19.192Z,9.10
2023-01-27T22:10:24.288Z,9.09
2023-01-27T22:15:30.558Z,9.18
2023-01-27T22:20:32.689Z,9.01
2023-01-27T22:25:34.963Z,9.05
2023-01-27T22:30:37.621Z,8.72
2023-01-27T22:35:39.894Z,8.74
2023-01-27T22:40:41.976Z,8.87
2023-01-27T22:45:44.440Z,8.79
2023-01-27T22:50:46.641Z,8.93
2023-01-27T22:56:00.233Z,8.75
2023-01-27T23:01:06.352Z,8.62
2023-01-27T23:06:09.543Z,8.49
2023-01-27T23:11:12.256Z,8.64
2023-01-27T23:16:14.452Z,8.48
2023-01-27T23:21:16.932Z,8.52
2023-01-27T23:26:19.466Z,8.25
2023-01-27T23:31:21.681Z,8.34
2023-01-27T23:36:23.945Z,8.23
2023-01-27T23:41:26.002Z,8.47
2023-01-27T23:46:28.288Z,8.32
2023-01-27T23:51:30.663Z,8.33
2023-01-27T23:56:32.776Z,7.96
